Archival Weather

Yakutsk

Yakutsk, Russia (UEEE)

Report from: Sunday, February 5, 2023 6:30 AM JST
Current time: Sunday, July 14, 2024 11:00 AM JST

Current weather – Weather history – Daily summaries
Weather forecast

Present weatherFog
Temperature-44.0°C (-47.2°F)
Dew point-48.0°C (-54.4°F)
Winds 1.9 kts (1 m/s, 2.2 mph) South (170°)
Visibility1640.4 ft. (500 m)
Altimeter30.06 in.Hg (1018 mB)
Precip. events QF 8:35 AM
Relative humidity64 %
Density altitude-8,191 ft. (-2,496 m)
Remarks No significant changes expected in the next two hours
Flight conditions Low Instrument Meteorological Conditions
Raw dataUEEE 042130Z 17001MPS 0500 R23L/1200N FG NSC M44/M48 Q1018 R23L/490150 NOSIG RMK QFE755
An error has occurred. This application may no longer respond until reloaded. Reload 🗙